KF7FMI-13 Weather Reports


time (UTC)temp
F
wind
direction
speed
knots
gust
knots
rain 1hr
in
rain 24hr
in
rain mn
in
humidity
%
barometer
mb
20240222100022 37 177 6.1 7.0 0.00 0.00 0.00 99 1024.6
20240222095025 37 177 5.2 6.1 0.00 0.00 0.00 99 1024.6
20240222094028 36 180 0.9 4.3 0.00 0.00 0.00 99 1024.6
20240222093051 36 0.0 0.0 0.00 0.00 0.00 99 1024.6
20240222092017 36 0.0 0.0 0.00 0.00 0.00 99 1024.4
20240222091019 36 0.0 0.0 0.00 0.00 0.00 99 1024.4
20240222090022 36 0.0 0.0 0.00 0.00 0.00 99 1024.4
20240222085026 36 0.0 0.0 0.00 0.00 0.00 99 1024.4
20240222084023 36 0.0 0.0 0.00 0.00 0.00 99 1024.3
20240222083020 36 0.0 0.0 0.00 0.00 0.00 99 1024.1
20240222082017 37 180 0.0 4.3 0.00 0.00 0.00 99 1024.1
20240222081020 37 187 4.3 4.3 0.00 0.00 0.00 99 1024.1
20240222080023 37 199 4.3 5.2 0.00 0.00 0.00 99 1024.0
20240222075026 36 187 3.5 5.2 0.00 0.00 0.00 99 1023.9
20240222074029 37 180 1.7 4.3 0.00 0.00 0.00 99 1023.9
20240222073032 37 0.0 0.9 0.00 0.00 0.00 99 1023.6
20240222072017 37 164 1.7 5.2 0.00 0.00 0.00 99 1023.6
20240222071021 37 0.0 0.9 0.00 0.00 0.00 99 1023.6
20240222070024 37 0.0 0.0 0.00 0.00 0.00 99 1023.5
20240222065026 37 0.0 0.0 0.00 0.00 0.00 99 1023.5
20240222064050 37 0.0 0.9 0.00 0.00 0.00 99 1023.3
20240222063033 37 0.0 0.0 0.00 0.00 0.00 99 1023.2
20240222062018 38 0.0 0.0 0.00 0.00 0.00 99 1023.0
20240222061021 38 193 1.7 5.2 0.00 0.00 0.00 99 1022.9
20240222060024 39 192 4.3 7.0 0.00 0.00 0.00 99 1022.8
20240222055043 39 168 7.8 8.7 0.00 0.00 0.00 99 1022.7
20240222054025 39 171 7.8 8.7 0.00 0.00 0.00 99 1022.6
20240222053048 39 137 7.8 9.6 0.00 0.00 0.00 99 1022.5
20240222052025 39 163 8.7 9.6 0.00 0.00 0.00 99 1022.3
20240222051016 39 154 7.8 9.6 0.00 0.00 0.00 99 1022.3
20240222050019 39 154 7.0 7.8 0.00 0.00 0.00 99 1022.2
20240222045017 39 170 6.1 7.0 0.00 0.00 0.00 99 1022.0
20240222044025 40 177 7.0 7.8 0.00 0.00 0.00 99 1021.8
20240222043029 39 177 7.0 7.8 0.00 0.00 0.00 99 1021.6
20240222042052 40 180 7.0 7.8 0.00 0.00 0.00 99 1021.5
20240222041017 39 169 7.0 7.8 0.00 0.00 0.00 99 1021.5
20240222040020 39 177 6.1 7.0 0.00 0.00 0.00 99 1021.4
20240222035023 38 143 1.7 6.1 0.00 0.00 0.00 99 1021.3
20240222034028 38 0.0 0.0 0.00 0.00 0.00 99 1021.3
20240222033029 39 151 1.7 6.1 0.00 0.00 0.00 99 1021.3
20240222032033 39 0.0 0.0 0.00 0.00 0.00 99 1021.1
20240222031018 39 157 0.0 4.3 0.00 0.00 0.00 99 1021.0
20240222030021 39 0.0 0.0 0.00 0.00 0.00 99 1020.9
20240222025024 40 0.0 0.0 0.00 0.00 0.00 99 1020.8
20240222024113 40 0.0 0.0 0.00 0.00 0.00 99 1020.6
20240222023031 40 0.0 0.0 0.00 0.00 0.00 99 1020.5
20240222022016 40 0.0 4.3 0.00 0.00 0.00 99 1020.3
20240222021019 41 171 7.0 7.0 0.00 0.00 0.00 99 1020.2
20240222020022 41 174 7.0 7.8 0.00 0.00 0.00 99 1020.2
20240222015045 41 180 7.0 7.8 0.00 0.00 0.00 99 1019.9
20240222014022 41 182 7.8 7.8 0.00 0.00 0.00 99 1019.7
20240222013020 42 180 4.3 7.8 0.00 0.00 0.00 99 1019.7
20240222012017 42 184 7.0 7.0 0.00 0.00 0.00 99 1019.7
20240222011020 42 183 7.0 7.8 0.00 0.00 0.00 99 1019.6
20240222010023 43 189 7.0 7.8 0.00 0.00 0.00 99 1019.5
20240222005026 43 195 1.7 7.0 0.00 0.00 0.00 99 1019.4
20240222004029 44 179 7.8 8.7 0.00 0.00 0.00 99 1019.2
20240222003033 45 188 8.7 10.4 0.00 0.00 0.00 99 1019.2
20240222002018 44 177 8.7 10.4 0.00 0.00 0.00 99 1019.1
20240222001021 43 168 8.7 9.6 0.00 0.00 0.00 99 1019.0
20240222000029 43 191 9.6 9.6 0.00 0.00 0.00 99 1018.9
20240221235027 44 189 8.7 9.6 0.00 0.00 0.00 99 1018.9
20240221234030 44 222 7.0 7.8 0.00 0.00 0.00 99 1018.8
20240221233015 45 219 6.1 7.0 0.00 0.00 0.00 99 1018.6
20240221232019 45 216 7.0 7.8 0.00 0.00 0.00 99 1018.5
20240221231022 45 210 7.8 8.7 0.00 0.00 0.00 99 1018.5
20240221230025 46 219 7.8 9.6 0.00 0.00 0.00 99 1018.5
20240221225028 46 219 7.0 8.7 0.00 0.00 0.00 99 1018.4
20240221224031 47 241 7.8 9.6 0.00 0.00 0.00 99 1018.3
20240221223016 46 212 3.5 7.0 0.00 0.00 0.00 99 1018.4
20240221222020 45 0.0 0.0 0.00 0.00 0.00 99 1018.4
20240221221022 45 0.0 0.0 0.00 0.00 0.00 99 1018.4
20240221220020 44 0.0 0.0 0.00 0.00 0.00 99 1018.4
20240221215017 44 0.0 0.0 0.00 0.00 0.00 99 1018.3
20240221214026 44 158 3.5 7.0 0.00 0.00 0.00 99 1018.2
20240221213029 43 0.0 0.0 0.00 0.00 0.00 99 1018.4
20240221212033 42 0.0 0.0 0.00 0.00 0.00 99 1018.3
20240221211018 42 0.0 0.0 0.00 0.00 0.00 99 1018.2
20240221210041 42 0.0 0.0 0.00 0.00 0.00 99 1018.1
20240221205023 42 0.0 0.0 0.00 0.00 0.00 99 1017.9
20240221204047 42 0.0 0.0 0.00 0.00 0.00 99 1017.9
20240221203029 42 0.0 0.0 0.00 0.00 0.00 99 1017.8
20240221202032 42 0.0 0.0 0.00 0.00 0.00 99 1017.9
20240221201018 42 0.0 0.0 0.00 0.00 0.00 99 1017.8
20240221200041 42 0.0 0.0 0.00 0.00 0.00 99 1017.8
20240221195023 41 0.0 0.0 0.00 0.00 0.00 99 1017.8
20240221194027 41 0.0 0.0 0.00 0.00 0.00 99 1017.7
20240221193111 41 0.0 0.0 0.00 0.00 0.00 99 1017.7
20240221192015 40 0.0 0.0 0.00 0.00 0.00 99 1017.7
20240221191018 41 0.0 0.0 0.00 0.00 0.00 99 1017.5
20240221190021 41 0.0 0.0 0.00 0.00 0.00 99 1017.4
20240221185025 40 0.0 0.0 0.00 0.00 0.00 99 1017.3
20240221184022 40 0.0 0.0 0.00 0.00 0.00 99 1017.3
20240221183019 40 0.0 0.0 0.00 0.00 0.00 99 1017.3
20240221182016 40 0.0 0.0 0.00 0.00 0.00 99 1017.1
20240221181019 40 0.0 0.0 0.00 0.00 0.00 99 1017.0
20240221180022 40 0.0 0.0 0.00 0.00 0.00 99 1016.9
20240221175025 39 0.0 0.0 0.00 0.00 0.00 99 1016.8
20240221174049 40 0.0 0.0 0.00 0.00 0.00 99 1016.7
20240221173053 40 0.0 0.0 0.00 0.00 0.00 99 1016.6
20240221172017 40 0.0 0.0 0.00 0.00 0.00 99 1016.5
20240221171020 39 0.0 0.0 0.00 0.00 0.00 99 1016.4
20240221170023 39 0.0 0.0 0.00 0.00 0.00 99 1016.3
20240221165026 40 0.0 0.0 0.00 0.00 0.00 99 1016.1
20240221164030 39 0.0 0.0 0.00 0.00 0.00 99 1016.1
20240221163033 39 0.0 0.0 0.00 0.00 0.00 99 1015.9
20240221162018 39 0.0 0.0 0.00 0.00 0.00 99 1015.7
20240221161021 39 0.0 0.0 0.00 0.00 0.00 99 1015.7
20240221160044 39 0.0 0.0 0.00 0.00 0.00 99 1015.7
20240221155027 38 0.0 0.0 0.00 0.00 0.00 99 1015.5
20240221154030 38 0.0 0.0 0.00 0.00 0.00 99 1015.6
20240221153035 38 0.0 0.0 0.00 0.00 0.00 99 1015.4
20240221152019 38 0.0 0.0 0.00 0.00 0.00 99 1015.4
20240221151042 38 0.0 0.0 0.00 0.00 0.00 99 1015.3
20240221150019 37 0.0 0.0 0.00 0.00 0.00 99 1015.2
20240221145015 37 0.0 0.0 0.00 0.00 0.00 99 1015.0
20240221144031 37 0.0 0.0 0.00 0.00 0.00 99 1015.0
20240221143016 37 0.0 0.0 0.00 0.00 0.00 99 1015.0
20240221142019 37 0.0 0.0 0.00 0.00 0.00 99 1015.0
20240221141023 37 0.0 0.0 0.00 0.00 0.00 99 1015.0
20240221140025 37 0.0 0.0 0.00 0.01 0.00 99 1015.0
20240221135029 37 0.0 0.0 0.00 0.01 0.00 99 1014.9
20240221134031 37 0.0 0.0 0.00 0.01 0.00 99 1014.9
20240221133017 37 0.0 0.0 0.00 0.01 0.00 99 1014.9
20240221132020 37 0.0 0.0 0.00 0.01 0.00 99 1014.9
20240221131023 37 0.0 0.0 0.00 0.01 0.00 99 1014.4
20240221130026 37 64 4.3 7.0 0.00 0.01 0.00 99 1014.2
20240221125029 37 0.0 1.7 0.00 0.01 0.00 99 1014.5
20240221124032 37 0.0 0.0 0.00 0.01 0.00 99 1014.3
20240221123017 37 36 6.1 7.0 0.00 0.01 0.00 99 1014.5
20240221122041 37 0.0 0.0 0.00 0.01 0.00 99 1014.5
20240221121024 37 0.0 0.0 0.00 0.01 0.00 99 1014.5
20240221120027 37 0.0 0.0 0.00 0.01 0.00 99 1014.5
20240221115024 37 0.0 0.0 0.00 0.01 0.00 99 1014.5
20240221114015 37 0.0 0.0 0.00 0.01 0.00 99 1014.5
20240221113019 37 0.0 0.0 0.00 0.01 0.00 99 1014.5
20240221112016 37 0.0 0.0 0.00 0.01 0.00 99 1014.3
20240221111026 37 0.0 0.0 0.00 0.01 0.00 99 1014.3
20240221110029 37 0.0 0.0 0.00 0.01 0.00 99 1014.3
20240221105032 37 0.0 0.0 0.00 0.01 0.00 99 1014.3
20240221104017 37 0.0 0.0 0.00 0.01 0.00 99 1014.5
20240221103021 37 45 0.0 0.9 0.00 0.01 0.00 99 1014.5
20240221102028 37 0.0 0.0 0.00 0.01 0.00 99 1014.5
20240221101027 38 0.0 0.0 0.00 0.01 0.00 99 1014.5